Decoded Metar for EHWO (WOENSDRECHT in NETHERLANDS) (IATA:WOE) | Meteo·Mobile Aviation Weather
aviador You're here:

EHWO Decoded Metar

WOENSDRECHT in NETHERLANDS
Report Time2018-12-14 16:55:00
UTC Time2018-12-14 17:04:18
Flight Rules ifr IFR
WindVRB at 02 kt
Visibility3800 m
Phenomena:Mist
Clouds:Overcast 035 Hf
Expected CloudBase > 400 ft AGL from Temp-Dew spread
Ceiling3,500 ft
Temp00°C (ISA -15)
Dew Point-1°C (93% RH)
AAT-2.8°C
QNH1025 hPa
Density Alt-2,096 ft
Elevation56 ft
Report Wrong Elevation
Raw Report
METAR EHWO 141655Z AUTO VRB02KT 3800 BR OVC035 M00/M01 Q1025 GRN=

Extra information for EHWO:More info

Metar Taf Metar & Taf Last 4 Metars F.Rules Stats Wind Profile Meteogram Temp Stats Airport Information Weather charts Add Link Nearby VenuesMetar ALERT Operation Metar Decoded Social comments